Time;durP1;ratioP1;P1;durP2;ratioP2;P2;SDS_P1;SDS_P2;PMS_P1;PMS_P2;Temp;Humidity;BMP_temperature;BMP_pressure;BME280_temperature;BME280_humidity;BME280_pressure;Samples;Min_cycle;Max_cycle;Signal;HPM_P1;HPM_P2
2022/03/20 00:01:48;;;;;;;36.42;21.55;;;;;;;3.81;64.98;96958.19;10293757;28;96895;-85
2022/03/20 00:06:52;;;;;;;36.70;21.02;;;;;;;4.03;64.07;96958.69;10290615;28;97071;-85
2022/03/20 00:11:55;;;;;;;34.30;20.02;;;;;;;4.15;63.20;96956.22;10290799;28;98785;-85
2022/03/20 00:16:59;;;;;;;34.00;21.48;;;;;;;4.31;62.72;96960.50;10292742;28;96986;-85
2022/03/20 00:22:02;;;;;;;31.10;19.95;;;;;;;4.39;62.63;96968.63;10277596;28;97798;-85
2022/03/20 00:27:05;;;;;;;33.00;21.58;;;;;;;4.45;62.73;96970.00;10272576;28;97035;-85
2022/03/20 00:32:12;;;;;;;33.97;21.15;;;;;;;4.51;63.05;96975.66;10288050;28;96940;-85
2022/03/20 00:37:15;;;;;;;38.63;21.67;;;;;;;4.25;64.34;96977.22;10293324;28;96833;-85
2022/03/20 00:42:18;;;;;;;37.97;22.58;;;;;;;4.17;65.06;96987.97;10286407;28;97001;-85
2022/03/20 00:47:22;;;;;;;38.17;23.83;;;;;;;4.29;64.48;96980.44;10289805;28;96761;-85
2022/03/20 00:52:25;;;;;;;39.78;23.17;;;;;;;4.43;64.54;96977.03;10276870;28;96935;-85
2022/03/20 00:57:28;;;;;;;37.25;23.65;;;;;;;4.81;63.49;96977.31;10278175;28;96993;-85
2022/03/20 01:02:38;;;;;;;40.25;24.52;;;;;;;5.09;63.06;96983.38;10278927;28;96948;-85
2022/03/20 01:07:43;;;;;;;35.85;22.88;;;;;;;4.99;62.81;96985.69;10287734;28;97782;-85
2022/03/20 01:12:46;;;;;;;40.75;22.63;;;;;;;4.64;63.88;96985.25;10291479;28;96975;-85
2022/03/20 01:17:50;;;;;;;41.15;25.20;;;;;;;4.27;65.71;96982.28;10285637;28;96965;-85
2022/03/20 01:22:53;;;;;;;36.92;23.92;;;;;;;4.10;66.47;96986.69;10287418;28;96986;-85
2022/03/20 01:27:56;;;;;;;33.47;22.40;;;;;;;4.28;65.31;96978.75;10278158;28;97192;-85
2022/03/20 01:33:01;;;;;;;36.90;23.10;;;;;;;4.26;65.48;96976.25;10274151;28;96802;-84
2022/03/20 01:38:05;;;;;;;;;;;;;;;4.35;64.64;96974.88;10275316;28;96948;-85
2022/03/20 01:43:08;;;;;;;35.70;22.85;;;;;;;4.49;63.56;96972.34;10290134;28;99662;-85
2022/03/20 01:48:12;;;;;;;36.38;22.52;;;;;;;4.53;63.53;96963.44;10267341;28;96918;-84
2022/03/20 01:53:19;;;;;;;43.72;25.27;;;;;;;4.42;64.08;96975.34;10289959;28;96969;-85
2022/03/20 01:58:22;;;;;;;42.30;26.38;;;;;;;3.91;65.82;96966.22;10290219;28;98699;-84
2022/03/20 02:03:26;;;;;;;39.42;24.25;;;;;;;3.75;66.38;96970.63;10289733;28;97324;-84
2022/03/20 02:08:33;;;;;;;44.40;25.33;;;;;;;3.61;67.46;96969.66;10280620;28;97009;-84
2022/03/20 02:13:36;;;;;;;37.22;23.48;;;;;;;3.55;67.75;96969.16;10278687;28;100072;-84
2022/03/20 02:18:41;;;;;;;37.10;23.75;;;;;;;3.60;66.65;96962.00;10267870;28;96849;-84
2022/03/20 02:23:46;;;;;;;35.50;22.25;;;;;;;3.49;67.02;96972.09;10263742;28;96961;-84
2022/03/20 02:28:48;;;;;;;44.00;24.27;;;;;;;3.43;66.83;96966.38;10288298;28;97184;-84
2022/03/20 02:33:51;;;;;;;37.08;24.02;;;;;;;3.40;68.02;96966.53;10280660;28;99036;-84
2022/03/20 02:38:55;;;;;;;42.78;25.30;;;;;;;3.32;67.82;96963.53;10284799;28;98737;-84
2022/03/20 02:44:02;;;;;;;35.97;22.10;;;;;;;3.31;67.95;96961.88;10277207;28;97230;-84
2022/03/20 02:49:07;;;;;;;40.25;23.23;;;;;;;3.20;68.38;96964.22;10282387;28;97572;-84
2022/03/20 02:54:11;;;;;;;38.47;23.17;;;;;;;3.19;68.02;96957.41;10286090;28;98076;-84
2022/03/20 02:59:15;;;;;;;35.25;21.35;;;;;;;3.38;66.32;96964.97;10274300;28;96909;-84
2022/03/20 03:04:23;;;;;;;37.80;22.38;;;;;;;3.36;66.98;96966.78;10264503;28;98316;-84
2022/03/20 03:20:09;;;;;;;44.40;24.55;;;;;;;2.85;68.92;96964.38;10277296;28;97816;-84
2022/03/20 03:25:13;;;;;;;40.78;24.02;;;;;;;3.07;68.10;96971.81;10272579;28;96932;-84
2022/03/20 03:30:16;;;;;;;39.40;23.57;;;;;;;3.20;67.21;96977.13;10305331;28;96822;-84
2022/03/20 03:40:43;;;;;;;37.33;23.40;;;;;;;3.26;67.35;96972.47;10284893;28;97189;-84
2022/03/20 03:45:47;;;;;;;39.25;22.65;;;;;;;3.38;66.86;96972.72;10274306;28;97269;-84
2022/03/20 03:50:52;;;;;;;36.33;22.98;;;;;;;3.42;66.39;96979.38;10272901;28;97327;-84
2022/03/20 03:55:56;;;;;;;38.92;23.60;;;;;;;3.42;66.26;96979.38;10283858;28;97211;-84
2022/03/20 04:01:00;;;;;;;41.08;23.88;;;;;;;3.30;65.88;96991.19;10275035;28;99098;-84
2022/03/20 04:06:05;;;;;;;38.83;23.80;;;;;;;3.16;66.82;96989.38;10265802;28;97355;-84
2022/03/20 04:11:09;;;;;;;38.15;22.52;;;;;;;3.05;67.13;96992.53;10285816;28;97174;-84
2022/03/20 04:16:12;;;;;;;37.50;23.05;;;;;;;3.00;66.97;96993.72;10270754;28;96870;-84
2022/03/20 04:21:16;;;;;;;37.83;23.33;;;;;;;3.06;67.08;97001.94;10293110;28;96837;-84
2022/03/20 04:26:21;;;;;;;30.52;20.23;;;;;;;3.13;66.42;96993.88;10281418;28;99866;-84
2022/03/20 04:31:24;;;;;;;42.20;24.50;;;;;;;2.96;67.63;96999.94;10285322;28;96909;-84
2022/03/20 04:36:28;;;;;;;42.97;25.13;;;;;;;2.62;69.79;97009.47;10290318;28;98414;-84
2022/03/20 04:41:33;;;;;;;45.45;27.08;;;;;;;2.50;70.02;97003.19;10292775;28;97951;-84
2022/03/20 04:46:36;;;;;;;42.40;25.05;;;;;;;2.59;69.72;97000.13;10278384;28;100246;-84
2022/03/20 05:02:21;;;;;;;38.42;23.00;;;;;;;2.56;68.10;97004.63;10285763;28;96952;-84
2022/03/20 05:07:24;;;;;;;42.75;23.50;;;;;;;2.52;68.71;97009.09;10270809;28;99301;-84
2022/03/20 05:17:48;;;;;;;44.65;25.60;;;;;;;2.25;70.37;97012.19;10288020;28;101225;-83
2022/03/20 05:22:52;;;;;;;42.47;23.52;;;;;;;2.25;70.60;97014.78;10290173;28;96911;-84
2022/03/20 05:27:56;;;;;;;38.33;22.63;;;;;;;2.35;69.96;97011.72;10269805;28;98493;-83
2022/03/20 05:32:59;;;;;;;42.17;24.13;;;;;;;2.30;71.19;97015.38;10276475;28;98061;-83
2022/03/20 05:38:02;;;;;;;39.63;23.98;;;;;;;2.25;70.72;97019.06;10289510;28;96741;-83
2022/03/20 05:43:08;;;;;;;34.78;22.13;;;;;;;2.29;70.52;97023.19;10290587;28;97122;-83
2022/03/20 05:48:11;;;;;;;31.25;20.58;;;;;;;2.37;69.72;97022.78;10288937;28;97209;-83
2022/03/20 05:53:19;;;;;;;38.40;22.13;;;;;;;2.37;69.82;97030.50;10264883;28;98023;-83
2022/03/20 05:58:23;;;;;;;36.90;21.42;;;;;;;2.44;68.85;97037.03;10263719;28;97311;-83
2022/03/20 06:03:26;;;;;;;33.95;20.95;;;;;;;2.46;68.87;97040.38;10288836;28;99042;-83
2022/03/20 06:08:29;;;;;;;38.10;23.45;;;;;;;2.40;69.10;97040.69;10279548;28;98119;-83
2022/03/20 06:13:35;;;;;;;35.08;20.95;;;;;;;2.26;70.02;97044.78;10261214;28;100371;-84
2022/03/20 06:18:40;;;;;;;60.40;40.45;;;;;;;2.04;71.34;97039.03;10288109;28;97255;-83
2022/03/20 06:23:45;;;;;;;43.43;26.80;;;;;;;1.97;71.25;97047.97;10286672;28;97232;-83
2022/03/20 06:28:49;;;;;;;41.58;25.25;;;;;;;2.19;70.26;97051.16;10276891;28;97055;-83
2022/03/20 06:33:53;;;;;;;39.63;23.47;;;;;;;2.35;68.92;97060.72;10270113;28;100120;-83
2022/03/20 06:38:56;;;;;;;39.08;24.30;;;;;;;2.38;69.44;97061.38;10275930;28;97436;-83
2022/03/20 06:44:01;;;;;;;45.35;26.75;;;;;;;2.48;69.21;97064.34;10278779;28;96893;-83
2022/03/20 06:49:06;;;;;;;37.92;23.67;;;;;;;2.62;68.94;97067.03;10285190;28;97977;-84
2022/03/20 06:54:09;;;;;;;42.33;25.25;;;;;;;2.68;68.17;97074.50;10263516;28;102725;-84
2022/03/20 06:59:15;;;;;;;35.10;23.33;;;;;;;2.79;68.10;97083.41;10273539;28;100303;-84
2022/03/20 07:04:17;;;;;;;33.95;21.65;;;;;;;2.82;67.38;97086.69;10272127;28;98202;-84
2022/03/20 07:09:20;;;;;;;36.67;22.52;;;;;;;2.88;67.23;97081.19;10276679;28;97074;-84
2022/03/20 07:14:25;;;;;;;31.08;20.10;;;;;;;3.03;67.92;97082.16;10280966;28;97717;-84
2022/03/20 07:19:28;;;;;;;30.10;19.90;;;;;;;3.20;66.81;97088.97;10284629;28;97073;-83
2022/03/20 07:24:31;;;;;;;34.67;21.33;;;;;;;3.24;66.80;97087.91;10287424;28;97380;-84
2022/03/20 07:29:35;;;;;;;31.15;20.73;;;;;;;3.44;66.07;97094.59;10280457;28;97058;-84
2022/03/20 07:34:39;;;;;;;34.88;20.60;;;;;;;3.60;66.71;97097.19;10282319;28;98744;-84
2022/03/20 07:39:42;;;;;;;33.45;20.73;;;;;;;3.75;64.70;97100.69;10274316;28;96755;-84
2022/03/20 07:44:47;;;;;;;41.40;24.95;;;;;;;4.01;65.84;97098.41;10277394;28;96908;-84
2022/03/20 07:49:51;;;;;;;34.97;21.53;;;;;;;4.19;65.13;97104.28;10286297;28;97817;-83
2022/03/20 07:54:55;;;;;;;43.50;24.70;;;;;;;4.37;65.69;97108.41;10282911;28;96842;-84
2022/03/20 07:59:59;;;;;;;34.60;21.95;;;;;;;4.55;65.19;97103.91;10266207;28;98933;-84
2022/03/20 08:05:02;;;;;;;40.13;24.45;;;;;;;4.75;64.84;97096.75;10274827;28;97039;-84
2022/03/20 08:10:07;;;;;;;39.40;22.85;;;;;;;4.89;64.78;97103.69;10272739;28;96920;-84
2022/03/20 08:15:15;;;;;;;33.80;22.57;;;;;;;4.98;64.63;97097.16;10281764;28;99067;-84
2022/03/20 08:20:18;;;;;;;34.42;22.73;;;;;;;5.22;63.97;97100.84;10293109;28;96832;-84
2022/03/20 08:25:22;;;;;;;32.35;20.67;;;;;;;5.29;63.24;97106.50;10292503;28;98500;-84
2022/03/20 08:30:26;;;;;;;31.85;21.67;;;;;;;5.44;63.12;97100.34;10271970;28;96936;-84
2022/03/20 08:35:29;;;;;;;27.23;18.95;;;;;;;5.47;63.30;97107.09;10271855;28;98047;-84
2022/03/20 08:40:33;;;;;;;32.00;19.85;;;;;;;5.51;62.92;97116.34;10284078;28;97117;-84
2022/03/20 08:45:37;;;;;;;31.35;20.33;;;;;;;5.64;64.02;97116.44;10276218;28;96806;-84
2022/03/20 08:50:43;;;;;;;28.50;18.25;;;;;;;5.83;63.53;97118.72;10286719;28;98817;-84
2022/03/20 08:55:46;;;;;;;24.85;17.50;;;;;;;6.06;63.24;97120.66;10281555;28;96854;-84
2022/03/20 09:00:51;;;;;;;31.52;16.92;;;;;;;6.25;63.35;97117.72;10290481;28;96966;-83
2022/03/20 09:05:54;;;;;;;24.63;15.80;;;;;;;6.40;62.92;97121.09;10287625;28;98344;-85
2022/03/20 09:10:57;;;;;;;25.38;16.85;;;;;;;6.51;63.32;97127.34;10290203;28;98694;-84
2022/03/20 09:21:22;;;;;;;28.85;17.88;;;;;;;6.89;63.22;97127.38;10267267;28;97254;-84
2022/03/20 09:26:27;;;;;;;27.63;17.52;;;;;;;7.09;63.26;97126.06;10268178;28;97057;-84
2022/03/20 09:31:33;;;;;;;22.27;14.98;;;;;;;7.28;61.61;97122.22;10292170;28;101653;-84
2022/03/20 09:36:36;;;;;;;23.13;15.05;;;;;;;7.57;61.33;97131.41;10271776;28;97240;-84
2022/03/20 09:41:41;;;;;;;24.67;13.23;;;;;;;7.79;60.92;97120.34;10288202;28;97629;-84
2022/03/20 09:46:45;;;;;;;18.27;10.98;;;;;;;7.90;59.14;97119.56;10288348;28;96834;-84
2022/03/20 09:51:49;;;;;;;21.03;10.93;;;;;;;8.13;56.68;97124.91;10262538;28;97138;-84
2022/03/20 09:56:53;;;;;;;14.52;9.75;;;;;;;8.45;55.73;97132.97;10278614;28;98132;-84
2022/03/20 10:02:02;;;;;;;17.05;9.70;;;;;;;8.68;53.84;97120.84;10282886;28;97666;-84
2022/03/20 10:07:21;;;;;;;18.05;10.68;;;;;;;8.84;54.15;97120.53;10286745;28;97381;-84
2022/03/20 10:12:31;;;;;;;19.90;11.20;;;;;;;8.90;52.81;97114.88;10280928;28;98484;-84
2022/03/20 10:17:36;;;;;;;17.15;10.23;;;;;;;9.06;53.15;97108.50;10284229;28;96934;-84
2022/03/20 10:22:39;;;;;;;15.70;9.27;;;;;;;9.23;52.98;97102.00;10287177;28;98157;-84
2022/03/20 10:27:57;;;;;;;16.65;10.27;;;;;;;9.36;50.84;97105.31;10276301;28;97385;-84
2022/03/20 10:33:13;;;;;;;15.98;10.65;;;;;;;9.51;49.98;97112.94;10287108;28;97409;-84
2022/03/20 10:38:36;;;;;;;16.83;10.20;;;;;;;9.70;49.67;97110.53;10283955;28;97176;-84
2022/03/20 10:43:43;;;;;;;16.25;9.88;;;;;;;9.81;49.01;97101.88;10276067;28;97069;-83
2022/03/20 10:48:49;;;;;;;15.80;10.45;;;;;;;9.93;49.01;97102.69;10258018;28;96742;-84
2022/03/20 10:53:54;;;;;;;16.10;10.45;;;;;;;10.04;49.31;97100.03;10280754;28;98216;-84
2022/03/20 10:58:58;;;;;;;18.40;10.90;;;;;;;10.26;49.58;97100.91;10279466;28;98366;-84
2022/03/20 11:04:04;;;;;;;17.53;10.60;;;;;;;10.45;48.85;97101.06;10279697;28;96841;-84
2022/03/20 11:09:07;;;;;;;17.92;10.82;;;;;;;10.53;49.14;97095.19;10268369;28;96982;-84
2022/03/20 11:14:15;;;;;;;16.33;11.13;;;;;;;10.66;49.30;97090.63;10287677;28;97174;-84
2022/03/20 11:19:23;;;;;;;16.70;10.35;;;;;;;10.76;47.91;97091.53;10288099;28;96961;-84
2022/03/20 11:24:27;;;;;;;16.98;10.63;;;;;;;10.94;47.27;97096.97;10280276;28;96872;-84
2022/03/20 11:29:32;;;;;;;15.38;9.55;;;;;;;11.09;47.19;97099.28;10266096;28;101439;-84
2022/03/20 11:34:37;;;;;;;15.48;9.85;;;;;;;11.20;46.84;97099.19;10275085;28;97029;-84
2022/03/20 11:40:01;;;;;;;13.05;9.75;;;;;;;11.34;47.02;97098.03;10256450;28;96755;-83
2022/03/20 11:45:14;;;;;;;10.57;7.70;;;;;;;11.59;45.82;97098.53;10269292;28;97073;-84
2022/03/20 11:50:21;;;;;;;10.65;7.80;;;;;;;11.84;44.97;97094.63;10285318;28;96956;-84
2022/03/20 11:55:30;;;;;;;11.88;9.25;;;;;;;11.84;44.95;97089.38;10278254;28;96889;-83
2022/03/20 12:00:35;;;;;;;12.77;8.88;;;;;;;11.88;45.38;97088.16;10276807;28;96946;-83
2022/03/20 12:05:55;;;;;;;13.32;8.45;;;;;;;11.93;44.82;97088.56;10292560;28;97980;-84
2022/03/20 12:11:06;;;;;;;14.57;8.30;;;;;;;12.10;44.17;97087.91;10281249;28;96903;-84
2022/03/20 12:16:09;;;;;;;12.50;8.82;;;;;;;12.30;43.40;97087.91;10292570;28;96863;-84
2022/03/20 12:21:15;;;;;;;11.95;7.70;;;;;;;12.44;42.60;97095.38;10289184;28;96927;-84
2022/03/20 12:26:33;;;;;;;12.38;7.95;;;;;;;12.54;42.00;97094.53;10275708;28;96814;-83
2022/03/20 12:31:54;;;;;;;13.15;7.63;;;;;;;12.70;42.16;97084.34;10279164;28;97879;-83
2022/03/20 12:37:31;;;;;;;10.35;6.78;;;;;;;12.78;40.73;97078.38;10286235;28;100034;-84
2022/03/20 12:42:37;;;;;;;10.20;6.88;;;;;;;12.91;40.37;97076.31;10290295;28;96931;-84
2022/03/20 12:47:54;;;;;;;9.30;5.95;;;;;;;12.89;40.63;97078.22;10290328;28;96875;-83
2022/03/20 12:53:05;;;;;;;8.85;6.35;;;;;;;13.02;41.66;97062.19;10285835;28;97186;-84
2022/03/20 12:58:14;;;;;;;10.88;6.47;;;;;;;13.16;41.77;97074.84;10274873;28;96965;-83
2022/03/20 13:03:18;;;;;;;8.90;6.30;;;;;;;13.33;41.06;97064.59;10278110;28;96853;-83
2022/03/20 13:08:23;;;;;;;13.30;6.90;;;;;;;13.61;42.07;97060.16;10271095;28;99062;-84
2022/03/20 13:13:28;;;;;;;;;;;;;;;13.87;41.94;97052.41;10280484;28;97636;-84
2022/03/20 13:18:35;;;;;;;12.05;6.32;;;;;;;14.18;41.81;97059.94;10277270;28;96933;-84
2022/03/20 13:23:37;;;;;;;9.20;6.13;;;;;;;14.35;41.72;97055.69;10285384;28;96873;-84
2022/03/20 13:28:43;;;;;;;10.23;5.60;;;;;;;14.68;40.22;97056.75;10275777;28;96970;-83
2022/03/20 13:33:52;;;;;;;9.68;5.35;;;;;;;15.00;40.29;97055.31;10286160;28;96873;-84
2022/03/20 13:38:57;;;;;;;9.82;5.97;;;;;;;15.37;39.10;97061.25;10290938;28;97276;-84
2022/03/20 13:44:04;;;;;;;12.82;5.85;;;;;;;15.54;38.82;97057.72;10276088;28;96876;-83
2022/03/20 13:49:08;;;;;;;10.60;6.50;;;;;;;15.53;38.84;97053.44;10279464;28;98514;-83
2022/03/20 13:54:13;;;;;;;10.10;5.68;;;;;;;15.48;38.50;97056.56;10289863;28;97102;-83
2022/03/20 13:59:19;;;;;;;11.20;5.93;;;;;;;15.46;38.92;97053.25;10274265;28;98553;-83
2022/03/20 14:04:24;;;;;;;10.93;6.68;;;;;;;15.52;38.90;97061.50;10271946;28;96998;-84
2022/03/20 14:09:34;;;;;;;10.48;5.82;;;;;;;15.64;37.97;97053.19;10281373;28;96865;-84
2022/03/20 14:14:45;;;;;;;13.35;6.57;;;;;;;15.70;38.45;97046.44;10269924;28;96797;-84
2022/03/20 14:19:49;;;;;;;10.38;5.60;;;;;;;15.65;39.11;97044.31;10282340;28;98224;-84
2022/03/20 14:24:57;;;;;;;7.57;5.35;;;;;;;15.75;39.47;97048.59;10279477;28;97366;-84
2022/03/20 14:40:45;;;;;;;7.47;5.30;;;;;;;16.26;38.60;97044.09;10264235;28;96825;-84
2022/03/20 14:45:50;;;;;;;11.82;5.20;;;;;;;16.04;37.71;97046.38;10302910;28;96864;-84
2022/03/20 14:50:53;;;;;;;9.25;4.82;;;;;;;16.06;38.74;97051.47;10288687;28;97111;-85
2022/03/20 14:55:56;;;;;;;6.05;4.22;;;;;;;15.93;38.72;97045.84;10280479;28;96821;-84
2022/03/20 15:01:00;;;;;;;6.38;4.63;;;;;;;15.77;37.96;97055.38;10268064;28;97657;-84
2022/03/20 15:06:04;;;;;;;;;;;;;;;15.72;37.63;97049.75;10276797;28;96870;-84
2022/03/20 15:16:26;;;;;;;9.65;5.10;;;;;;;15.74;37.19;97042.53;10280905;28;98097;-84
2022/03/20 15:21:30;;;;;;;8.32;4.82;;;;;;;15.77;37.42;97047.47;10284161;28;96925;-84
2022/03/20 15:26:34;;;;;;;10.75;5.40;;;;;;;15.82;37.83;97049.59;10284188;28;97022;-84
2022/03/20 15:31:39;;;;;;;8.13;5.13;;;;;;;15.93;37.27;97053.75;10266054;28;96857;-84
2022/03/20 15:36:43;;;;;;;8.10;4.40;;;;;;;16.01;37.42;97054.59;10293749;28;97345;-84
2022/03/20 15:41:48;;;;;;;10.93;4.82;;;;;;;16.02;37.78;97056.25;10291635;28;98200;-84
2022/03/20 15:46:52;;;;;;;11.18;5.35;;;;;;;15.88;36.50;97049.78;10279580;28;98213;-84
2022/03/20 15:51:56;;;;;;;7.97;5.22;;;;;;;15.75;37.71;97052.06;10289976;28;96983;-85
2022/03/20 15:56:59;;;;;;;8.88;5.20;;;;;;;15.55;37.27;97058.53;10280277;28;97629;-85
2022/03/20 16:02:04;;;;;;;7.72;5.53;;;;;;;15.40;38.41;97059.13;10264232;28;98794;-85
2022/03/20 16:07:07;;;;;;;9.93;5.82;;;;;;;15.07;38.14;97066.06;10291680;28;98860;-85
2022/03/20 16:12:10;;;;;;;8.68;5.63;;;;;;;14.86;38.43;97074.31;10274372;28;97039;-85
2022/03/20 16:17:15;;;;;;;12.52;6.40;;;;;;;14.58;39.39;97076.25;10265310;28;97000;-85
2022/03/20 16:22:19;;;;;;;10.63;5.85;;;;;;;14.31;39.01;97073.53;10277952;28;97231;-84
2022/03/20 16:32:44;;;;;;;7.88;5.65;;;;;;;14.25;38.75;97087.25;10200322;28;97546;-84
2022/03/20 16:37:47;;;;;;;9.23;5.80;;;;;;;14.13;38.96;97085.84;10202028;28;97238;-85
2022/03/20 16:42:52;;;;;;;10.95;6.20;;;;;;;13.99;39.54;97082.72;10201763;28;96967;-85
2022/03/20 16:47:57;;;;;;;11.65;6.32;;;;;;;13.87;39.61;97086.53;10204295;28;97065;-84
2022/03/20 16:53:00;;;;;;;11.20;6.15;;;;;;;13.72;40.16;97095.88;10202515;28;96992;-85
2022/03/20 16:58:03;;;;;;;7.65;5.20;;;;;;;13.59;39.55;97097.06;10202716;28;96979;-82
2022/03/20 17:03:08;;;;;;;9.20;5.50;;;;;;;13.47;41.03;97106.09;10205884;28;98404;-85
2022/03/20 17:08:15;;;;;;;10.82;5.63;;;;;;;13.56;40.31;97107.03;10228376;28;97582;-85
2022/03/20 17:13:19;;;;;;;10.23;5.32;;;;;;;13.58;40.56;97115.56;10288089;28;97523;-85
2022/03/20 17:18:23;;;;;;;9.57;5.50;;;;;;;13.46;41.03;97112.31;10287173;28;96842;-85
2022/03/20 17:23:26;;;;;;;9.38;5.40;;;;;;;13.27;41.31;97118.44;10273271;28;97180;-84
2022/03/20 17:28:29;;;;;;;8.77;5.32;;;;;;;13.23;41.80;97117.91;10268817;28;97446;-84
2022/03/20 17:33:34;;;;;;;8.63;5.50;;;;;;;13.19;41.98;97115.72;10287187;28;100080;-84
2022/03/20 17:38:37;;;;;;;10.98;6.25;;;;;;;13.04;42.45;97121.41;10283551;28;97011;-84
2022/03/20 17:43:40;;;;;;;8.35;5.95;;;;;;;12.91;42.70;97126.16;10290234;28;96869;-84
2022/03/20 17:48:44;;;;;;;14.55;6.82;;;;;;;12.80;42.92;97129.69;10283672;28;96832;-84
2022/03/20 17:53:47;;;;;;;10.33;6.13;;;;;;;12.63;42.90;97128.63;10289461;28;97054;-84
2022/03/20 17:58:52;;;;;;;11.05;6.38;;;;;;;12.42;43.73;97144.50;10292610;28;96936;-84
2022/03/20 18:09:17;;;;;;;10.30;6.75;;;;;;;12.22;44.39;97151.47;10289703;28;97262;-83
2022/03/20 18:14:28;;;;;;;12.55;7.30;;;;;;;12.16;44.33;97152.00;10385694;27;100805;-64
2022/03/20 18:19:32;;;;;;;10.90;8.02;;;;;;;11.99;44.88;97155.28;10369235;28;96860;-64
2022/03/20 18:24:35;;;;;;;14.90;8.90;;;;;;;11.91;45.25;97158.59;10365547;28;96899;-64
2022/03/20 18:29:39;;;;;;;12.55;7.78;;;;;;;11.76;45.65;97168.56;10369879;28;96996;-64
2022/03/20 18:34:42;;;;;;;13.10;7.73;;;;;;;11.59;46.15;97167.44;10369177;28;97296;-65
2022/03/20 18:39:45;;;;;;;10.35;7.35;;;;;;;11.43;46.67;97173.13;10369857;28;96797;-64
2022/03/20 18:44:49;;;;;;;14.60;9.07;;;;;;;11.31;46.81;97164.53;10368868;28;96826;-64
2022/03/20 18:49:53;;;;;;;15.87;8.90;;;;;;;11.23;47.09;97166.13;10367793;28;100105;-64
2022/03/20 18:54:56;;;;;;;18.77;9.07;;;;;;;11.07;47.83;97170.00;10365837;28;96887;-65
2022/03/20 19:00:02;;;;;;;13.18;8.35;;;;;;;11.02;48.37;97168.75;10367402;28;96824;-64
2022/03/20 19:05:06;;;;;;;16.60;8.52;;;;;;;10.92;48.47;97169.50;10368588;28;97727;-65
2022/03/20 19:10:11;;;;;;;12.50;8.90;;;;;;;10.87;48.84;97169.03;10366551;28;96849;-65
2022/03/20 19:15:18;;;;;;;14.73;9.57;;;;;;;10.77;49.33;97165.53;10366888;28;97444;-65
2022/03/20 19:20:21;;;;;;;15.35;9.35;;;;;;;10.68;49.18;97174.13;10364634;28;98601;-65
2022/03/20 19:25:24;;;;;;;11.30;8.57;;;;;;;10.60;49.35;97175.59;10338328;28;97974;-64
2022/03/20 19:30:28;;;;;;;14.98;8.50;;;;;;;10.52;49.69;97174.53;10339000;28;100617;-64
2022/03/20 19:40:52;;;;;;;15.25;9.15;;;;;;;10.26;50.48;97171.41;10332445;28;101896;-65
2022/03/20 19:45:56;;;;;;;14.90;8.93;;;;;;;10.16;50.57;97177.34;10335759;28;96908;-66
2022/03/20 19:50:59;;;;;;;17.80;10.00;;;;;;;10.08;50.89;97185.00;10338197;28;96726;-66
2022/03/20 19:56:02;;;;;;;13.63;9.57;;;;;;;10.01;51.08;97183.81;10336957;28;97008;-64
2022/03/20 20:01:11;;;;;;;13.68;9.18;;;;;;;9.89;51.18;97190.84;10340101;28;96844;-66
2022/03/20 20:06:14;;;;;;;18.27;9.60;;;;;;;9.84;51.52;97190.34;10344401;28;97067;-65
2022/03/20 20:11:20;;;;;;;17.30;9.70;;;;;;;9.79;51.57;97190.72;10336551;28;96920;-66
2022/03/20 20:16:24;;;;;;;17.60;10.32;;;;;;;9.79;51.75;97195.91;10338442;28;96750;-66
2022/03/20 20:21:28;;;;;;;14.83;9.97;;;;;;;9.71;51.82;97213.13;10335061;28;98228;-66
2022/03/20 20:26:30;;;;;;;14.55;9.75;;;;;;;9.64;52.15;97207.53;10334318;28;97118;-65
2022/03/20 20:31:37;;;;;;;;;;;;;;;9.60;51.81;97216.56;10338194;28;98213;-66
2022/03/20 20:36:40;;;;;;;13.95;9.82;;;;;;;9.53;52.16;97215.38;10334880;28;97024;-65
2022/03/20 20:41:44;;;;;;;14.00;9.50;;;;;;;9.41;52.40;97212.72;10335384;28;96830;-66
2022/03/20 20:46:49;;;;;;;20.10;10.67;;;;;;;9.30;52.81;97215.31;10337265;28;97044;-66
2022/03/20 20:51:54;;;;;;;15.30;10.17;;;;;;;9.30;52.70;97208.31;10331929;28;97244;-66
2022/03/20 20:56:57;;;;;;;13.95;10.68;;;;;;;9.24;52.82;97210.53;10335094;28;98422;-66
2022/03/20 21:02:02;;;;;;;16.20;10.50;;;;;;;9.13;53.30;97213.16;10334601;28;98108;-66
2022/03/20 21:12:26;;;;;;;13.98;9.73;;;;;;;9.01;53.06;97218.31;10336847;28;96999;-66
2022/03/20 21:17:31;;;;;;;16.05;10.13;;;;;;;8.94;53.39;97230.13;10337496;28;96890;-66
2022/03/20 21:22:35;;;;;;;14.30;8.80;;;;;;;8.94;52.76;97229.31;10331505;28;96924;-65
2022/03/20 21:27:38;;;;;;;13.25;9.20;;;;;;;8.86;53.07;97230.72;10336833;28;97006;-65
2022/03/20 21:32:42;;;;;;;13.15;9.15;;;;;;;8.73;53.63;97233.38;10336431;28;96782;-65
2022/03/20 21:37:46;;;;;;;15.30;9.77;;;;;;;8.69;53.21;97231.09;10335557;28;98695;-65
2022/03/20 21:42:50;;;;;;;14.40;9.82;;;;;;;8.60;53.29;97227.38;10336061;28;96900;-65
2022/03/20 21:47:54;;;;;;;17.65;10.25;;;;;;;8.51;53.49;97230.66;10334752;28;97550;-65
2022/03/20 21:52:57;;;;;;;24.30;11.17;;;;;;;8.38;54.18;97222.91;10332069;28;96950;-65
2022/03/20 21:58:01;;;;;;;18.98;11.43;;;;;;;7.97;55.73;97227.47;10333288;28;97195;-65
2022/03/20 22:03:05;;;;;;;15.77;10.10;;;;;;;7.82;55.70;97233.75;10332581;28;96738;-66
2022/03/20 22:08:10;;;;;;;16.20;10.67;;;;;;;7.82;55.73;97233.75;10337235;28;96939;-66
2022/03/20 22:13:13;;;;;;;13.63;9.33;;;;;;;7.81;55.01;97226.06;10323340;28;98580;-65
2022/03/20 22:18:18;;;;;;;13.27;8.93;;;;;;;7.79;54.88;97228.78;10328767;28;97885;-66
2022/03/20 22:23:21;;;;;;;18.02;9.88;;;;;;;7.65;55.74;97231.47;10329263;28;97928;-65
2022/03/20 22:28:24;;;;;;;16.95;10.25;;;;;;;7.41;56.08;97245.22;10330982;28;96813;-65
2022/03/20 22:33:32;;;;;;;22.38;13.55;;;;;;;7.39;56.11;97245.31;10332813;28;96782;-65
2022/03/20 22:38:35;;;;;;;20.55;12.15;;;;;;;7.44;56.03;97246.78;10328126;28;96905;-64
2022/03/20 22:43:37;;;;;;;17.92;11.18;;;;;;;7.30;56.63;97256.34;10329070;28;96818;-65
2022/03/20 22:54:02;;;;;;;17.15;9.25;;;;;;;6.71;58.22;97254.09;10331932;28;99886;-64
2022/03/20 22:59:06;;;;;;;13.55;8.40;;;;;;;6.65;57.94;97262.28;10332035;28;96973;-65
2022/03/20 23:04:11;;;;;;;11.63;8.23;;;;;;;6.75;57.31;97255.56;10336807;28;97787;-64
2022/03/20 23:09:14;;;;;;;13.55;8.82;;;;;;;6.73;57.27;97256.56;10338058;28;100138;-65
2022/03/20 23:14:18;;;;;;;13.90;8.82;;;;;;;6.69;57.40;97257.72;10336950;28;97107;-64
2022/03/20 23:19:24;;;;;;;12.73;9.45;;;;;;;6.54;58.09;97259.50;10336733;28;98084;-64
2022/03/20 23:24:27;;;;;;;12.98;8.73;;;;;;;6.50;57.52;97252.88;10340191;28;96769;-65
2022/03/20 23:29:30;;;;;;;12.65;9.07;;;;;;;6.57;57.30;97256.72;10339575;28;96880;-65
2022/03/20 23:34:35;;;;;;;14.98;8.95;;;;;;;6.62;56.49;97259.88;10335683;28;100268;-64
2022/03/20 23:39:38;;;;;;;14.05;9.55;;;;;;;6.65;56.62;97257.09;10332052;28;97599;-64
2022/03/20 23:44:40;;;;;;;13.93;8.05;;;;;;;6.67;56.46;97257.81;10332793;28;97608;-64
2022/03/20 23:49:45;;;;;;;13.60;8.30;;;;;;;6.72;56.21;97260.13;10334286;28;97044;-64
2022/03/20 23:54:48;;;;;;;15.37;8.33;;;;;;;6.77;56.11;97258.06;10338413;28;97590;-64
2022/03/20 23:59:51;;;;;;;10.80;7.55;;;;;;;6.75;55.87;97260.75;10337711;28;97293;-64
